createdAt,value
2018-03-07T00:00:38.551Z,74.95
2018-03-07T00:03:04.952Z,75.30
2018-03-07T00:05:31.371Z,73.25
2018-03-07T00:07:58.520Z,78.30
2018-03-07T00:10:24.960Z,74.87
2018-03-07T00:12:51.383Z,66.40
2018-03-07T00:15:17.874Z,75.05
2018-03-07T00:17:44.291Z,71.10
2018-03-07T00:20:11.423Z,69.43
2018-03-07T00:22:37.838Z,69.20
2018-03-07T00:25:04.276Z,68.50
2018-03-07T00:27:31.440Z,69.78
2018-03-07T00:29:58.577Z,74.18
2018-03-07T00:32:24.993Z,68.43
2018-03-07T00:34:51.375Z,67.57
2018-03-07T00:37:17.814Z,69.60
2018-03-07T00:39:44.212Z,69.70
2018-03-07T00:42:10.633Z,68.60
2018-03-07T00:44:37.024Z,68.70
2018-03-07T00:47:03.478Z,64.30
2018-03-07T00:49:29.898Z,68.47
2018-03-07T00:51:56.316Z,65.18
2018-03-07T00:54:23.461Z,60.53
2018-03-07T00:56:50.360Z,58.08
2018-03-07T00:59:16.770Z,60.78
2018-03-07T01:01:43.197Z,62.53
2018-03-07T01:04:09.600Z,66.20
2018-03-07T01:06:36.182Z,67.15
2018-03-07T01:09:02.782Z,66.22
2018-03-07T01:11:29.296Z,67.85
2018-03-07T01:13:56.461Z,69.60
2018-03-07T01:16:23.602Z,72.12
2018-03-07T01:18:50.034Z,75.03
2018-03-07T01:21:16.449Z,70.57
2018-03-07T01:23:43.586Z,66.18
2018-03-07T01:26:10.014Z,73.62
2018-03-07T01:28:36.428Z,76.07
2018-03-07T01:31:03.607Z,74.43
2018-03-07T01:33:30.735Z,69.53
2018-03-07T01:35:57.168Z,70.50
2018-03-07T01:38:23.694Z,71.05
2018-03-07T01:40:50.195Z,67.18
2018-03-07T01:43:16.617Z,65.85
2018-03-07T01:45:43.027Z,59.67
2018-03-07T01:48:09.516Z,61.78
2018-03-07T01:50:36.667Z,55.88
2018-03-07T01:53:04.556Z,53.60
2018-03-07T01:55:31.762Z,58.85
2018-03-07T01:57:58.176Z,54.25
2018-03-07T02:00:24.548Z,55.30
2018-03-07T02:02:51.742Z,49.80
2018-03-07T02:05:18.144Z,48.75
2018-03-07T02:07:44.573Z,52.60
2018-03-07T02:10:11.151Z,48.90
2018-03-07T02:12:37.570Z,51.83
2018-03-07T02:15:04.056Z,52.92
2018-03-07T02:17:30.445Z,46.55
2018-03-07T02:19:56.860Z,45.28
2018-03-07T02:22:23.284Z,47.75
2018-03-07T02:24:49.724Z,46.75
2018-03-07T02:27:16.862Z,48.50
2018-03-07T02:29:43.363Z,45.75
2018-03-07T02:32:10.545Z,45.65
2018-03-07T02:34:36.979Z,46.95
2018-03-07T02:37:04.125Z,47.15
2018-03-07T02:39:30.722Z,50.58
2018-03-07T02:41:57.867Z,46.03
2018-03-07T02:44:24.280Z,46.75
2018-03-07T02:46:50.690Z,49.72
2018-03-07T02:49:17.919Z,45.15
2018-03-07T02:51:44.317Z,46.35
2018-03-07T02:54:11.475Z,48.00
2018-03-07T02:56:37.863Z,51.72
2018-03-07T02:59:04.292Z,47.45
2018-03-07T03:01:30.708Z,48.38
2018-03-07T03:03:57.130Z,48.63
2018-03-07T03:06:23.528Z,49.80
2018-03-07T03:08:49.948Z,45.53
2018-03-07T03:11:16.456Z,48.67
2018-03-07T03:16:09.311Z,47.60
2018-03-07T03:18:35.759Z,48.75
2018-03-07T03:21:02.948Z,51.08
2018-03-07T03:23:29.374Z,46.47
2018-03-07T03:25:56.580Z,45.42
2018-03-07T03:28:23.632Z,42.40
2018-03-07T03:30:50.759Z,46.33
2018-03-07T03:33:17.173Z,45.15
2018-03-07T03:35:43.589Z,47.10
2018-03-07T03:38:10.004Z,47.97
2018-03-07T03:40:36.444Z,45.53
2018-03-07T03:43:02.840Z,44.53
2018-03-07T03:45:29.271Z,43.72
2018-03-07T03:47:55.678Z,48.65
2018-03-07T03:50:22.862Z,48.22
2018-03-07T03:52:50.064Z,47.28
2018-03-07T03:55:17.109Z,46.53
2018-03-07T03:57:43.511Z,47.70
2018-03-07T04:00:09.917Z,43.63
2018-03-07T04:02:37.177Z,44.47
2018-03-07T04:05:04.362Z,47.78
2018-03-07T04:07:30.810Z,48.75
2018-03-07T04:09:57.957Z,47.42
2018-03-07T04:12:24.442Z,47.55
2018-03-07T04:14:53.690Z,50.33
2018-03-07T04:17:20.111Z,49.35
2018-03-07T04:19:47.247Z,47.92
2018-03-07T04:22:13.638Z,51.67
2018-03-07T04:24:40.808Z,51.55
2018-03-07T04:27:07.948Z,48.80
2018-03-07T04:29:34.347Z,49.67
2018-03-07T04:32:01.500Z,48.90
2018-03-07T04:34:28.688Z,47.47
2018-03-07T04:36:55.860Z,48.20
2018-03-07T04:39:23.047Z,47.05
2018-03-07T04:41:49.972Z,51.95
2018-03-07T04:44:17.017Z,50.70
2018-03-07T04:46:43.420Z,48.70
2018-03-07T04:49:10.580Z,49.42
2018-03-07T04:51:37.726Z,52.88
2018-03-07T04:54:04.752Z,50.80
2018-03-07T04:56:31.149Z,51.47
2018-03-07T04:58:57.568Z,50.92
2018-03-07T05:01:23.983Z,49.40
2018-03-07T05:03:51.168Z,49.97
2018-03-07T05:06:18.448Z,49.78
2018-03-07T05:08:45.727Z,51.33
2018-03-07T05:11:12.130Z,50.08
2018-03-07T05:13:38.608Z,53.25
2018-03-07T05:16:05.626Z,52.35
2018-03-07T05:18:32.057Z,53.70
2018-03-07T05:20:59.185Z,49.53
2018-03-07T05:23:25.603Z,52.25
2018-03-07T05:25:52.030Z,57.10
2018-03-07T05:28:19.182Z,55.83
2018-03-07T05:30:45.614Z,55.05
2018-03-07T05:33:15.749Z,57.58
2018-03-07T05:35:42.266Z,51.47
2018-03-07T05:38:09.416Z,55.53
2018-03-07T05:40:35.862Z,57.45
2018-03-07T05:43:02.259Z,56.37
2018-03-07T05:45:28.666Z,55.70
2018-03-07T05:47:55.037Z,60.45
2018-03-07T05:50:21.473Z,55.08
2018-03-07T05:52:47.860Z,55.85
2018-03-07T05:55:15.029Z,59.17
2018-03-07T05:57:42.976Z,56.72
2018-03-07T06:00:10.306Z,56.67
2018-03-07T06:02:37.454Z,55.08
2018-03-07T06:05:03.907Z,52.50
2018-03-07T06:07:30.321Z,53.05
2018-03-07T06:09:57.466Z,56.08
2018-03-07T06:12:23.871Z,53.70
2018-03-07T06:14:50.374Z,55.75
2018-03-07T06:17:17.648Z,53.08
2018-03-07T06:19:44.778Z,57.35
2018-03-07T06:22:11.195Z,53.33
2018-03-07T06:24:39.773Z,54.25
2018-03-07T06:27:06.944Z,58.42
2018-03-07T06:29:33.509Z,62.45
2018-03-07T06:32:00.667Z,63.80
2018-03-07T06:34:27.903Z,61.85
2018-03-07T06:36:54.411Z,71.15
2018-03-07T06:39:21.551Z,69.22
2018-03-07T06:41:47.992Z,80.18
2018-03-07T06:44:15.184Z,71.32
2018-03-07T06:46:41.622Z,74.03
2018-03-07T06:49:08.050Z,78.22
2018-03-07T06:51:35.430Z,72.22
2018-03-07T06:54:01.841Z,72.40
2018-03-07T06:56:29.008Z,70.93
2018-03-07T06:58:55.544Z,69.57
2018-03-07T07:01:22.004Z,72.00
2018-03-07T07:03:48.452Z,73.95
2018-03-07T07:06:14.959Z,73.85
2018-03-07T07:08:42.163Z,66.85
2018-03-07T07:11:08.605Z,72.30
2018-03-07T07:13:35.027Z,65.15
2018-03-07T07:16:02.807Z,70.70
2018-03-07T07:18:29.288Z,64.55
2018-03-07T07:20:55.721Z,70.47
2018-03-07T07:23:22.131Z,67.20
2018-03-07T07:25:48.566Z,69.70
2018-03-07T07:28:14.980Z,64.82
2018-03-07T07:30:41.392Z,61.30
2018-03-07T07:33:07.799Z,67.55
2018-03-07T07:35:34.267Z,70.47
2018-03-07T07:38:01.406Z,63.30
2018-03-07T07:40:27.813Z,61.40
2018-03-07T07:42:54.356Z,64.68
2018-03-07T07:45:21.531Z,69.25
2018-03-07T07:47:48.190Z,72.22
2018-03-07T07:50:15.385Z,71.60
2018-03-07T07:52:41.815Z,65.35
2018-03-07T07:55:08.972Z,70.25
2018-03-07T07:57:36.169Z,75.93
2018-03-07T08:00:02.827Z,69.18
2018-03-07T08:02:29.988Z,81.75
2018-03-07T08:04:57.162Z,81.53
2018-03-07T08:07:24.340Z,78.95
2018-03-07T08:09:51.526Z,78.35
2018-03-07T08:12:17.975Z,74.60
2018-03-07T08:14:44.374Z,74.25
2018-03-07T08:17:10.862Z,75.28
2018-03-07T08:19:38.026Z,70.43
2018-03-07T08:22:04.467Z,80.80
2018-03-07T08:24:30.966Z,72.57
2018-03-07T08:26:58.820Z,81.75
2018-03-07T08:29:25.395Z,81.47
2018-03-07T08:31:52.586Z,91.25
2018-03-07T08:34:19.007Z,80.10
2018-03-07T08:36:45.507Z,85.75
2018-03-07T08:39:12.055Z,96.03
2018-03-07T08:41:39.209Z,89.32
2018-03-07T08:44:06.376Z,84.78
2018-03-07T08:46:33.328Z,88.20
2018-03-07T08:49:00.506Z,93.93
2018-03-07T08:51:26.940Z,88.78
2018-03-07T08:53:53.321Z,87.03
2018-03-07T08:56:20.480Z,79.85
2018-03-07T08:58:46.891Z,87.70
2018-03-07T09:01:13.331Z,93.20
2018-03-07T09:03:40.473Z,81.28
2018-03-07T09:06:06.928Z,82.05
2018-03-07T09:08:33.417Z,84.87
2018-03-07T09:11:00.690Z,85.32
2018-03-07T09:13:27.160Z,82.35
2018-03-07T09:15:53.618Z,81.85
2018-03-07T09:18:20.044Z,84.68
2018-03-07T09:20:47.051Z,83.87
2018-03-07T09:23:13.472Z,81.22
2018-03-07T09:25:41.034Z,82.68
2018-03-07T09:28:07.453Z,84.55
2018-03-07T09:30:33.884Z,90.03
2018-03-07T09:33:00.317Z,80.15
2018-03-07T09:35:27.812Z,88.95
2018-03-07T09:37:54.369Z,82.40
2018-03-07T09:40:21.546Z,91.30
2018-03-07T09:42:48.100Z,88.32
2018-03-07T09:45:15.352Z,90.62
2018-03-07T09:47:42.581Z,86.90
2018-03-07T09:50:09.037Z,101.40
2018-03-07T09:52:35.562Z,91.87
2018-03-07T09:55:02.796Z,94.85
2018-03-07T09:57:29.273Z,93.78
2018-03-07T09:59:56.577Z,88.60
2018-03-07T10:02:23.129Z,92.53
2018-03-07T10:04:50.305Z,93.32
2018-03-07T10:07:16.864Z,88.20
2018-03-07T10:09:43.366Z,105.35
2018-03-07T10:12:09.820Z,93.12
2018-03-07T10:14:36.336Z,95.85
2018-03-07T10:17:02.779Z,96.50
2018-03-07T10:19:29.951Z,94.10
2018-03-07T10:21:57.204Z,93.50
2018-03-07T10:24:24.911Z,93.20
2018-03-07T10:26:52.135Z,95.20
2018-03-07T10:29:18.852Z,93.97
2018-03-07T10:31:46.039Z,90.38
2018-03-07T10:34:12.462Z,95.00
2018-03-07T10:36:39.650Z,95.25
2018-03-07T10:39:06.824Z,88.97
2018-03-07T10:41:33.966Z,91.35
2018-03-07T10:44:01.099Z,89.22
2018-03-07T10:46:28.077Z,84.90
2018-03-07T10:48:54.521Z,83.22
2018-03-07T10:51:20.928Z,81.95
2018-03-07T10:53:48.116Z,78.72
2018-03-07T10:56:15.300Z,84.28
2018-03-07T10:58:41.713Z,82.30
2018-03-07T11:01:08.155Z,86.47
2018-03-07T11:03:34.553Z,70.22
2018-03-07T11:06:01.715Z,70.62
2018-03-07T11:08:28.858Z,65.95
2018-03-07T11:10:55.309Z,63.80
2018-03-07T11:13:21.913Z,62.65
2018-03-07T11:15:49.098Z,57.38
2018-03-07T11:18:15.830Z,48.28
2018-03-07T11:20:42.970Z,52.62
2018-03-07T11:23:09.376Z,50.10
2018-03-07T11:25:36.576Z,48.85
2018-03-07T11:28:03.087Z,44.03
2018-03-07T11:30:29.526Z,44.13
2018-03-07T11:32:56.005Z,41.67
2018-03-07T11:35:23.200Z,39.47
2018-03-07T11:37:52.974Z,40.20
2018-03-07T11:40:19.373Z,34.10
2018-03-07T11:42:46.530Z,35.30
2018-03-07T11:45:13.654Z,38.08
2018-03-07T11:47:40.079Z,38.05
2018-03-07T11:50:06.632Z,35.90
2018-03-07T11:52:33.911Z,44.88
2018-03-07T11:55:00.335Z,35.40
2018-03-07T11:57:26.763Z,36.20
2018-03-07T11:59:53.275Z,34.00
2018-03-07T12:02:20.437Z,38.53
2018-03-07T12:04:47.604Z,39.30
2018-03-07T12:07:14.654Z,38.10
2018-03-07T12:09:41.037Z,90.28
2018-03-07T12:12:08.201Z,36.25
2018-03-07T12:14:35.368Z,39.50
2018-03-07T12:17:02.552Z,40.15
2018-03-07T12:19:28.996Z,39.22
2018-03-07T12:21:56.167Z,44.95
2018-03-07T12:24:22.597Z,37.58
2018-03-07T12:26:49.013Z,40.03
2018-03-07T12:29:15.415Z,34.53
2018-03-07T12:31:41.852Z,35.25
2018-03-07T12:34:08.313Z,28.70
2018-03-07T12:36:34.720Z,33.22
2018-03-07T12:39:01.905Z,30.35
2018-03-07T12:41:28.458Z,32.97
2018-03-07T12:43:54.910Z,33.60
2018-03-07T12:46:22.090Z,26.33
2018-03-07T12:48:48.516Z,31.95
2018-03-07T12:51:15.281Z,25.58
2018-03-07T12:53:42.456Z,27.95
2018-03-07T12:56:09.876Z,31.50
2018-03-07T12:58:36.271Z,30.73
2018-03-07T13:01:02.804Z,28.62
2018-03-07T13:03:29.217Z,21.85
2018-03-07T13:05:57.042Z,24.80
2018-03-07T13:08:23.448Z,22.13
2018-03-07T13:10:50.646Z,21.80
2018-03-07T13:13:17.085Z,21.90
2018-03-07T13:15:43.520Z,24.30
2018-03-07T13:18:10.023Z,24.65
2018-03-07T13:20:36.419Z,24.10
2018-03-07T13:23:02.873Z,22.42
2018-03-07T13:25:29.475Z,22.00
2018-03-07T13:27:56.034Z,22.87
2018-03-07T13:30:22.589Z,25.12
2018-03-07T13:32:49.796Z,25.05
2018-03-07T13:35:16.228Z,25.90
2018-03-07T13:37:42.622Z,24.77
2018-03-07T13:40:09.142Z,26.92
2018-03-07T13:42:35.643Z,22.90
2018-03-07T13:45:02.075Z,26.77
2018-03-07T13:47:29.063Z,26.15
2018-03-07T13:49:55.463Z,24.90
2018-03-07T13:52:22.674Z,23.02
2018-03-07T13:54:49.074Z,22.95
2018-03-07T13:57:16.241Z,21.02
2018-03-07T13:59:42.724Z,24.58
2018-03-07T14:02:09.873Z,22.60
2018-03-07T14:04:37.289Z,23.67
2018-03-07T14:07:03.753Z,24.05
2018-03-07T14:09:30.200Z,22.02
2018-03-07T14:11:56.745Z,25.12
2018-03-07T14:14:23.906Z,21.60
2018-03-07T14:16:51.066Z,24.77
2018-03-07T14:19:18.227Z,22.15
2018-03-07T14:21:44.638Z,23.40
2018-03-07T14:24:11.074Z,22.77
2018-03-07T14:26:38.291Z,24.45
2018-03-07T14:29:04.739Z,23.62
2018-03-07T14:31:31.166Z,21.35
2018-03-07T14:33:57.565Z,23.40
2018-03-07T14:36:25.004Z,21.77
2018-03-07T14:38:51.455Z,22.42
2018-03-07T14:41:17.884Z,21.50
2018-03-07T14:43:45.040Z,22.58
2018-03-07T14:46:12.164Z,24.75
2018-03-07T14:48:38.621Z,24.40
2018-03-07T14:51:05.115Z,23.62
2018-03-07T14:53:32.343Z,19.65
2018-03-07T14:55:59.767Z,19.65
2018-03-07T14:58:26.368Z,18.62
2018-03-07T15:00:53.564Z,18.37
2018-03-07T15:03:19.976Z,18.02
2018-03-07T15:05:46.384Z,17.52
2018-03-07T15:08:12.817Z,19.50
2018-03-07T15:10:39.225Z,15.88
2018-03-07T15:13:05.718Z,16.92
2018-03-07T15:15:32.282Z,15.43
2018-03-07T15:17:58.664Z,15.80
2018-03-07T15:20:25.138Z,16.92
2018-03-07T15:22:51.648Z,15.05
2018-03-07T15:25:18.792Z,16.50
2018-03-07T15:27:45.228Z,19.70
2018-03-07T15:30:11.835Z,14.73
2018-03-07T15:32:39.032Z,14.95
2018-03-07T15:35:05.562Z,13.98
2018-03-07T15:37:31.955Z,13.23
2018-03-07T15:39:58.403Z,13.45
2018-03-07T15:42:24.840Z,13.93
2018-03-07T15:44:51.278Z,13.13
2018-03-07T15:47:18.451Z,14.82
2018-03-07T15:49:45.610Z,13.65
2018-03-07T15:52:12.770Z,13.43
2018-03-07T15:54:39.259Z,14.30
2018-03-07T15:57:06.389Z,12.80
2018-03-07T15:59:32.838Z,15.55
2018-03-07T16:01:59.266Z,12.73
2018-03-07T16:04:25.686Z,15.40
2018-03-07T16:06:52.846Z,13.57
2018-03-07T16:09:19.304Z,15.00
2018-03-07T16:11:45.753Z,14.43
2018-03-07T16:14:13.619Z,14.65
2018-03-07T16:16:40.797Z,15.05
2018-03-07T16:19:07.276Z,14.90
2018-03-07T16:21:33.706Z,15.18
2018-03-07T16:24:00.090Z,14.40
2018-03-07T16:26:26.538Z,14.63
2018-03-07T16:28:52.995Z,14.50
2018-03-07T16:31:19.466Z,14.60
2018-03-07T16:33:46.669Z,15.10
2018-03-07T16:36:13.089Z,15.30
2018-03-07T16:38:40.303Z,12.80
2018-03-07T16:41:06.838Z,14.07
2018-03-07T16:43:34.114Z,13.90
2018-03-07T16:46:01.348Z,12.30
2018-03-07T16:48:27.760Z,11.68
2018-03-07T16:50:54.206Z,11.77
2018-03-07T16:53:20.666Z,10.30
2018-03-07T16:55:47.565Z,10.98
2018-03-07T16:58:13.977Z,11.07
2018-03-07T17:00:41.145Z,10.88
2018-03-07T17:03:08.275Z,11.25
2018-03-07T17:05:34.719Z,13.05
2018-03-07T17:08:01.237Z,13.25
2018-03-07T17:10:27.629Z,11.98
2018-03-07T17:12:54.078Z,12.40
2018-03-07T17:15:20.505Z,12.25
2018-03-07T17:17:46.919Z,12.77
2018-03-07T17:20:13.332Z,12.02
2018-03-07T17:22:39.779Z,21.40
2018-03-07T17:25:06.221Z,13.23
2018-03-07T17:27:33.966Z,13.82
2018-03-07T17:30:00.404Z,13.52
2018-03-07T17:32:26.817Z,14.13
2018-03-07T17:34:54.039Z,14.80
2018-03-07T17:37:20.448Z,14.55
2018-03-07T17:39:47.722Z,15.20
2018-03-07T17:42:14.897Z,16.25
2018-03-07T17:44:42.101Z,18.10
2018-03-07T17:47:08.514Z,15.20
2018-03-07T17:49:35.796Z,15.50
2018-03-07T17:52:03.072Z,14.93
2018-03-07T17:54:31.230Z,14.02
2018-03-07T17:56:57.722Z,13.68
2018-03-07T17:59:24.959Z,12.27
2018-03-07T18:01:51.453Z,11.63
2018-03-07T18:04:18.662Z,12.82
2018-03-07T18:06:45.917Z,11.50
2018-03-07T18:09:12.460Z,12.20
2018-03-07T18:11:39.714Z,11.35
2018-03-07T18:14:06.124Z,11.10
2018-03-07T18:16:32.704Z,10.77
2018-03-07T18:18:59.148Z,12.63
2018-03-07T18:21:25.626Z,11.43
2018-03-07T18:23:52.160Z,9.73
2018-03-07T18:26:18.590Z,9.50
2018-03-07T18:28:45.224Z,10.35
2018-03-07T18:31:12.505Z,10.80
2018-03-07T18:33:40.222Z,9.52
2018-03-07T18:36:06.748Z,9.32
2018-03-07T18:38:34.028Z,10.45
2018-03-07T18:41:01.031Z,11.32
2018-03-07T18:43:27.463Z,9.73
2018-03-07T18:45:53.909Z,9.18
2018-03-07T18:48:21.099Z,8.10
2018-03-07T18:50:47.595Z,8.05
2018-03-07T18:53:14.089Z,8.20
2018-03-07T18:55:41.294Z,7.87
2018-03-07T18:58:07.824Z,7.00
2018-03-07T19:00:34.380Z,8.93
2018-03-07T19:03:02.582Z,9.55
2018-03-07T19:05:29.008Z,9.00
2018-03-07T19:07:55.443Z,7.78
2018-03-07T19:10:21.927Z,7.60
2018-03-07T19:12:49.111Z,8.15
2018-03-07T19:15:16.404Z,7.65
2018-03-07T19:17:42.839Z,6.45
2018-03-07T19:20:10.003Z,6.65
2018-03-07T19:22:37.178Z,7.40
2018-03-07T19:25:04.466Z,6.47
2018-03-07T19:27:30.920Z,5.70
2018-03-07T19:29:58.074Z,5.57
2018-03-07T19:32:24.554Z,4.78
2018-03-07T19:34:51.028Z,4.95
2018-03-07T19:37:18.798Z,5.10
2018-03-07T19:39:45.283Z,5.95
2018-03-07T19:42:12.696Z,6.22
2018-03-07T19:44:39.170Z,6.55
2018-03-07T19:47:06.332Z,6.00
2018-03-07T19:49:33.687Z,6.28
2018-03-07T19:52:00.169Z,5.95
2018-03-07T19:54:28.155Z,7.47
2018-03-07T19:56:56.674Z,6.05
2018-03-07T19:59:23.241Z,5.80
2018-03-07T20:01:51.128Z,6.10
2018-03-07T20:04:17.784Z,5.72
2018-03-07T20:06:45.063Z,6.10
2018-03-07T20:09:12.241Z,5.90
2018-03-07T20:11:39.310Z,5.80
2018-03-07T20:14:07.552Z,5.53
2018-03-07T20:16:34.020Z,5.80
2018-03-07T20:19:00.516Z,5.57
2018-03-07T20:21:27.559Z,5.75
2018-03-07T20:23:54.861Z,9.02
2018-03-07T20:26:22.978Z,8.95
2018-03-07T20:28:49.424Z,7.82
2018-03-07T20:31:15.883Z,6.68
2018-03-07T20:33:42.730Z,6.87
2018-03-07T20:36:09.939Z,7.62
2018-03-07T20:38:36.789Z,7.40
2018-03-07T20:41:03.202Z,6.53
2018-03-07T20:43:29.786Z,7.40
2018-03-07T20:45:56.926Z,8.13
2018-03-07T20:48:23.348Z,7.80
2018-03-07T20:50:50.448Z,6.68
2018-03-07T20:53:17.698Z,8.18
2018-03-07T20:55:44.142Z,7.18
2018-03-07T20:58:10.570Z,8.00
2018-03-07T21:00:36.989Z,8.32
2018-03-07T21:03:03.997Z,8.45
2018-03-07T21:05:30.446Z,9.65
2018-03-07T21:07:58.894Z,8.82
2018-03-07T21:10:25.342Z,9.20
2018-03-07T21:12:51.744Z,9.45
2018-03-07T21:15:18.932Z,17.00
2018-03-07T21:17:46.083Z,26.92
2018-03-07T21:20:12.497Z,17.65
2018-03-07T21:22:38.919Z,12.02
2018-03-07T21:25:05.303Z,8.55
2018-03-07T21:27:32.503Z,7.70
2018-03-07T21:29:59.103Z,7.60
2018-03-07T21:32:26.273Z,8.88
2018-03-07T21:34:52.732Z,9.07
2018-03-07T21:37:19.194Z,19.27
2018-03-07T21:39:45.831Z,17.35
2018-03-07T21:42:13.122Z,16.00
2018-03-07T21:44:39.681Z,15.15
2018-03-07T21:47:08.027Z,11.45
2018-03-07T21:49:34.447Z,11.20
2018-03-07T21:52:00.933Z,7.43
2018-03-07T21:54:27.368Z,7.85
2018-03-07T21:56:53.858Z,6.05
2018-03-07T21:59:20.309Z,7.15
2018-03-07T22:01:46.722Z,5.60
2018-03-07T22:04:14.050Z,4.90
2018-03-07T22:06:40.477Z,5.03
2018-03-07T22:09:07.406Z,4.53
2018-03-07T22:11:34.579Z,6.03
2018-03-07T22:14:01.740Z,4.40
2018-03-07T22:16:28.202Z,5.05
2018-03-07T22:18:54.632Z,4.90
2018-03-07T22:21:21.040Z,4.50
2018-03-07T22:23:47.498Z,4.40
2018-03-07T22:26:13.971Z,4.20
2018-03-07T22:28:40.501Z,4.15
2018-03-07T22:31:06.993Z,4.05
2018-03-07T22:33:33.527Z,5.22
2018-03-07T22:36:00.073Z,4.43
2018-03-07T22:38:26.511Z,4.03
2018-03-07T22:40:54.377Z,4.35
2018-03-07T22:43:20.793Z,4.03
2018-03-07T22:45:47.232Z,3.47
2018-03-07T22:48:13.729Z,4.25
2018-03-07T22:50:40.207Z,3.70
2018-03-07T22:53:06.635Z,3.60
2018-03-07T22:55:33.078Z,3.70
2018-03-07T22:57:59.504Z,4.03
2018-03-07T23:00:32.549Z,3.58
2018-03-07T23:02:59.046Z,3.85
2018-03-07T23:05:26.207Z,4.22
2018-03-07T23:07:52.687Z,3.78
2018-03-07T23:10:20.604Z,3.78
2018-03-07T23:12:47.017Z,3.83
2018-03-07T23:15:15.635Z,3.50
2018-03-07T23:17:42.794Z,3.62
2018-03-07T23:20:09.218Z,4.35
2018-03-07T23:22:36.378Z,6.47
2018-03-07T23:25:02.880Z,3.92
2018-03-07T23:27:30.172Z,4.40
2018-03-07T23:29:57.350Z,4.18
2018-03-07T23:32:24.518Z,4.43
2018-03-07T23:34:53.687Z,4.28
2018-03-07T23:37:20.121Z,3.67
2018-03-07T23:39:46.557Z,4.45
2018-03-07T23:42:12.994Z,4.62
2018-03-07T23:44:39.565Z,7.12
2018-03-07T23:47:06.082Z,4.62
2018-03-07T23:49:32.477Z,4.45
2018-03-07T23:51:59.638Z,4.80
2018-03-07T23:54:26.789Z,5.28
2018-03-07T23:56:53.223Z,5.82
2018-03-07T23:59:19.621Z,4.95
